sensor_id;sensor_type;location;lat;lon;timestamp;pressure;altitude;pressure_sealevel;temperature;humidity
80934;BME280;70392;51.144;17.050;2023-09-12T00:02:05;100042.44;;;18.12;75.23
80934;BME280;70392;51.144;17.050;2023-09-12T00:04:23;100049.61;;;18.01;75.24
80934;BME280;70392;51.144;17.050;2023-09-12T00:06:39;100051.95;;;17.97;75.47
80934;BME280;70392;51.144;17.050;2023-09-12T00:08:57;100052.00;;;17.88;75.97
80934;BME280;70392;51.144;17.050;2023-09-12T00:11:14;100052.98;;;17.84;76.15
80934;BME280;70392;51.144;17.050;2023-09-12T00:13:31;100053.08;;;17.91;76.02
80934;BME280;70392;51.144;17.050;2023-09-12T00:15:47;100050.30;;;17.91;76.03
80934;BME280;70392;51.144;17.050;2023-09-12T00:18:04;100046.98;;;17.91;75.79
80934;BME280;70392;51.144;17.050;2023-09-12T00:20:20;100050.05;;;17.92;75.71
80934;BME280;70392;51.144;17.050;2023-09-12T00:22:39;100047.55;;;17.84;75.72
80934;BME280;70392;51.144;17.050;2023-09-12T00:24:55;100045.75;;;17.87;75.95
80934;BME280;70392;51.144;17.050;2023-09-12T00:27:12;100046.58;;;17.90;75.74
80934;BME280;70392;51.144;17.050;2023-09-12T00:29:54;100045.99;;;17.95;75.38
80934;BME280;70392;51.144;17.050;2023-09-12T00:32:12;100046.75;;;17.95;74.79
80934;BME280;70392;51.144;17.050;2023-09-12T00:34:28;100044.54;;;17.88;75.77
80934;BME280;70392;51.144;17.050;2023-09-12T00:36:44;100042.35;;;17.82;75.92
80934;BME280;70392;51.144;17.050;2023-09-12T00:39:00;100041.30;;;17.82;75.75
80934;BME280;70392;51.144;17.050;2023-09-12T00:41:19;100042.60;;;17.82;75.73
80934;BME280;70392;51.144;17.050;2023-09-12T00:43:36;100048.76;;;17.76;76.06
80934;BME280;70392;51.144;17.050;2023-09-12T00:45:52;100043.25;;;17.70;76.57
80934;BME280;70392;51.144;17.050;2023-09-12T00:48:09;100048.43;;;17.70;76.32
80934;BME280;70392;51.144;17.050;2023-09-12T00:50:31;100042.73;;;17.70;76.25
80934;BME280;70392;51.144;17.050;2023-09-12T00:52:57;100046.55;;;17.69;76.26
80934;BME280;70392;51.144;17.050;2023-09-12T00:55:17;100046.89;;;17.64;76.35
80934;BME280;70392;51.144;17.050;2023-09-12T00:57:34;100046.11;;;17.57;76.37
80934;BME280;70392;51.144;17.050;2023-09-12T00:59:51;100044.80;;;17.58;76.59
80934;BME280;70392;51.144;17.050;2023-09-12T01:02:09;100046.26;;;17.58;76.49
80934;BME280;70392;51.144;17.050;2023-09-12T01:04:33;100040.66;;;17.55;76.68
80934;BME280;70392;51.144;17.050;2023-09-12T01:06:51;100043.84;;;17.56;76.51
80934;BME280;70392;51.144;17.050;2023-09-12T01:09:12;100040.75;;;17.53;76.42
80934;BME280;70392;51.144;17.050;2023-09-12T01:11:29;100036.62;;;17.43;76.31
80934;BME280;70392;51.144;17.050;2023-09-12T01:13:46;100038.20;;;17.39;76.62
80934;BME280;70392;51.144;17.050;2023-09-12T01:16:02;100037.58;;;17.43;76.66
80934;BME280;70392;51.144;17.050;2023-09-12T01:18:20;100030.52;;;17.48;76.50
80934;BME280;70392;51.144;17.050;2023-09-12T01:20:39;100042.28;;;17.48;76.71
80934;BME280;70392;51.144;17.050;2023-09-12T01:26:17;100037.66;;;17.48;76.83
80934;BME280;70392;51.144;17.050;2023-09-12T01:28:34;100032.52;;;17.57;76.09
80934;BME280;70392;51.144;17.050;2023-09-12T01:30:54;100035.73;;;17.56;75.79
80934;BME280;70392;51.144;17.050;2023-09-12T01:33:12;100032.92;;;17.42;76.60
80934;BME280;70392;51.144;17.050;2023-09-12T01:35:29;100035.22;;;17.44;76.68
80934;BME280;70392;51.144;17.050;2023-09-12T01:37:47;100031.70;;;17.31;76.22
80934;BME280;70392;51.144;17.050;2023-09-12T01:40:05;100030.94;;;17.25;75.63
80934;BME280;70392;51.144;17.050;2023-09-12T01:42:31;100037.98;;;17.15;74.78
80934;BME280;70392;51.144;17.050;2023-09-12T01:44:56;100034.38;;;17.08;74.98
80934;BME280;70392;51.144;17.050;2023-09-12T01:47:14;100030.85;;;17.00;74.49
80934;BME280;70392;51.144;17.050;2023-09-12T01:49:32;100037.08;;;16.93;75.46
80934;BME280;70392;51.144;17.050;2023-09-12T01:51:49;100040.57;;;16.86;75.57
80934;BME280;70392;51.144;17.050;2023-09-12T01:54:09;100039.09;;;16.93;78.64
80934;BME280;70392;51.144;17.050;2023-09-12T01:56:26;100047.52;;;16.98;78.60
80934;BME280;70392;51.144;17.050;2023-09-12T01:58:43;100047.98;;;16.95;78.45
80934;BME280;70392;51.144;17.050;2023-09-12T02:01:00;100040.98;;;16.95;78.22
80934;BME280;70392;51.144;17.050;2023-09-12T02:03:18;100041.39;;;17.04;78.27
80934;BME280;70392;51.144;17.050;2023-09-12T02:05:37;100035.03;;;17.05;78.16
80934;BME280;70392;51.144;17.050;2023-09-12T02:07:54;100038.81;;;17.02;78.19
80934;BME280;70392;51.144;17.050;2023-09-12T02:10:13;100043.52;;;17.06;78.20
80934;BME280;70392;51.144;17.050;2023-09-12T02:12:29;100047.48;;;17.07;77.95
80934;BME280;70392;51.144;17.050;2023-09-12T02:14:45;100048.55;;;17.05;77.84
80934;BME280;70392;51.144;17.050;2023-09-12T02:17:02;100045.69;;;17.09;77.86
80934;BME280;70392;51.144;17.050;2023-09-12T02:19:19;100047.09;;;17.06;77.68
80934;BME280;70392;51.144;17.050;2023-09-12T02:21:35;100041.81;;;17.08;77.60
80934;BME280;70392;51.144;17.050;2023-09-12T02:23:52;100047.45;;;17.03;77.14
80934;BME280;70392;51.144;17.050;2023-09-12T02:26:08;100052.16;;;17.01;77.02
80934;BME280;70392;51.144;17.050;2023-09-12T02:28:47;100044.02;;;17.12;77.38
80934;BME280;70392;51.144;17.050;2023-09-12T02:31:02;100046.34;;;17.09;77.43
80934;BME280;70392;51.144;17.050;2023-09-12T02:33:21;100048.05;;;17.07;77.39
80934;BME280;70392;51.144;17.050;2023-09-12T02:35:38;100047.30;;;17.03;77.30
80934;BME280;70392;51.144;17.050;2023-09-12T02:38:02;100049.12;;;16.92;77.22
80934;BME280;70392;51.144;17.050;2023-09-12T02:40:19;100047.63;;;16.89;77.20
80934;BME280;70392;51.144;17.050;2023-09-12T02:42:35;100045.01;;;16.92;77.27
80934;BME280;70392;51.144;17.050;2023-09-12T02:44:52;100046.67;;;16.90;76.92
80934;BME280;70392;51.144;17.050;2023-09-12T02:47:09;100048.09;;;16.79;77.11
80934;BME280;70392;51.144;17.050;2023-09-12T02:49:25;100044.80;;;16.70;77.01
80934;BME280;70392;51.144;17.050;2023-09-12T02:51:44;100048.67;;;16.71;77.26
80934;BME280;70392;51.144;17.050;2023-09-12T02:54:00;100048.84;;;16.69;77.17
80934;BME280;70392;51.144;17.050;2023-09-12T02:56:16;100052.27;;;16.59;77.39
80934;BME280;70392;51.144;17.050;2023-09-12T02:58:33;100055.09;;;16.61;77.49
80934;BME280;70392;51.144;17.050;2023-09-12T03:00:54;100058.80;;;16.62;77.27
80934;BME280;70392;51.144;17.050;2023-09-12T03:03:13;100062.75;;;16.68;76.93
80934;BME280;70392;51.144;17.050;2023-09-12T03:05:29;100059.44;;;16.68;77.10
80934;BME280;70392;51.144;17.050;2023-09-12T03:07:49;100057.91;;;16.63;77.11
80934;BME280;70392;51.144;17.050;2023-09-12T03:10:08;100055.13;;;16.64;77.27
80934;BME280;70392;51.144;17.050;2023-09-12T03:12:25;100057.23;;;16.64;77.27
80934;BME280;70392;51.144;17.050;2023-09-12T03:14:43;100059.30;;;16.59;77.31
80934;BME280;70392;51.144;17.050;2023-09-12T03:16:58;100061.95;;;16.54;77.37
80934;BME280;70392;51.144;17.050;2023-09-12T03:19:32;100059.02;;;16.47;77.03
80934;BME280;70392;51.144;17.050;2023-09-12T03:21:49;100056.86;;;16.50;77.17
80934;BME280;70392;51.144;17.050;2023-09-12T03:24:07;100055.81;;;16.52;77.33
80934;BME280;70392;51.144;17.050;2023-09-12T03:26:34;100057.28;;;16.45;76.88
80934;BME280;70392;51.144;17.050;2023-09-12T03:28:51;100055.11;;;16.41;76.73
80934;BME280;70392;51.144;17.050;2023-09-12T03:31:18;100058.58;;;16.43;77.20
80934;BME280;70392;51.144;17.050;2023-09-12T03:33:34;100055.70;;;16.44;77.15
80934;BME280;70392;51.144;17.050;2023-09-12T03:35:51;100058.56;;;16.51;76.55
80934;BME280;70392;51.144;17.050;2023-09-12T03:38:08;100053.25;;;16.43;77.01
80934;BME280;70392;51.144;17.050;2023-09-12T03:40:25;100062.27;;;16.38;77.32
80934;BME280;70392;51.144;17.050;2023-09-12T03:42:50;100060.38;;;16.34;77.40
80934;BME280;70392;51.144;17.050;2023-09-12T03:45:09;100059.61;;;16.28;77.58
80934;BME280;70392;51.144;17.050;2023-09-12T03:47:25;100055.95;;;16.24;77.77
80934;BME280;70392;51.144;17.050;2023-09-12T03:49:42;100061.24;;;16.17;77.84
80934;BME280;70392;51.144;17.050;2023-09-12T03:51:58;100056.88;;;16.17;77.34
80934;BME280;70392;51.144;17.050;2023-09-12T03:54:17;100052.14;;;16.23;77.57
80934;BME280;70392;51.144;17.050;2023-09-12T03:56:33;100050.48;;;16.28;77.30
80934;BME280;70392;51.144;17.050;2023-09-12T03:58:50;100049.73;;;16.24;77.30
80934;BME280;70392;51.144;17.050;2023-09-12T04:01:08;100051.67;;;16.14;77.64
80934;BME280;70392;51.144;17.050;2023-09-12T04:03:58;100052.36;;;16.09;77.80
80934;BME280;70392;51.144;17.050;2023-09-12T04:06:18;100048.60;;;16.39;76.22
80934;BME280;70392;51.144;17.050;2023-09-12T04:08:34;100044.19;;;16.44;76.05
80934;BME280;70392;51.144;17.050;2023-09-12T04:10:51;100047.89;;;16.32;76.50
80934;BME280;70392;51.144;17.050;2023-09-12T04:13:06;100051.38;;;16.18;77.07
80934;BME280;70392;51.144;17.050;2023-09-12T04:15:34;100051.95;;;16.21;77.06
80934;BME280;70392;51.144;17.050;2023-09-12T04:17:51;100054.42;;;16.13;77.29
80934;BME280;70392;51.144;17.050;2023-09-12T04:20:09;100059.03;;;16.06;77.36
80934;BME280;70392;51.144;17.050;2023-09-12T04:22:29;100054.83;;;16.06;77.33
80934;BME280;70392;51.144;17.050;2023-09-12T04:24:48;100060.80;;;16.07;77.29
80934;BME280;70392;51.144;17.050;2023-09-12T04:27:05;100068.23;;;16.09;77.27
80934;BME280;70392;51.144;17.050;2023-09-12T04:29:41;100062.37;;;16.22;76.92
80934;BME280;70392;51.144;17.050;2023-09-12T04:31:59;100066.33;;;16.20;76.92
80934;BME280;70392;51.144;17.050;2023-09-12T04:34:16;100054.85;;;16.22;76.82
80934;BME280;70392;51.144;17.050;2023-09-12T04:36:35;100062.16;;;16.15;77.05
80934;BME280;70392;51.144;17.050;2023-09-12T04:38:52;100062.78;;;16.08;77.35
80934;BME280;70392;51.144;17.050;2023-09-12T04:41:08;100059.34;;;16.07;77.61
80934;BME280;70392;51.144;17.050;2023-09-12T04:43:26;100058.05;;;16.09;76.87
80934;BME280;70392;51.144;17.050;2023-09-12T04:45:42;100071.17;;;16.15;76.21
80934;BME280;70392;51.144;17.050;2023-09-12T04:48:00;100070.20;;;16.22;76.60
80934;BME280;70392;51.144;17.050;2023-09-12T04:50:16;100072.14;;;16.28;76.38
80934;BME280;70392;51.144;17.050;2023-09-12T04:52:32;100071.05;;;16.32;75.69
80934;BME280;70392;51.144;17.050;2023-09-12T04:54:48;100069.45;;;16.36;75.16
80934;BME280;70392;51.144;17.050;2023-09-12T04:57:04;100069.31;;;16.44;75.74
80934;BME280;70392;51.144;17.050;2023-09-12T04:59:29;100067.40;;;16.56;75.46
80934;BME280;70392;51.144;17.050;2023-09-12T05:01:45;100066.81;;;16.58;75.41
80934;BME280;70392;51.144;17.050;2023-09-12T05:04:03;100071.34;;;16.61;75.30
80934;BME280;70392;51.144;17.050;2023-09-12T05:06:22;100073.16;;;16.59;75.38
80934;BME280;70392;51.144;17.050;2023-09-12T05:08:39;100072.58;;;16.57;75.58
80934;BME280;70392;51.144;17.050;2023-09-12T05:10:57;100070.84;;;16.61;75.18
80934;BME280;70392;51.144;17.050;2023-09-12T05:13:13;100074.37;;;16.47;75.19
80934;BME280;70392;51.144;17.050;2023-09-12T05:15:29;100077.37;;;16.45;74.84
80934;BME280;70392;51.144;17.050;2023-09-12T05:17:45;100077.24;;;16.44;74.43
80934;BME280;70392;51.144;17.050;2023-09-12T05:20:08;100084.20;;;16.41;75.05
80934;BME280;70392;51.144;17.050;2023-09-12T05:22:28;100079.14;;;16.41;74.77
80934;BME280;70392;51.144;17.050;2023-09-12T05:24:48;100088.27;;;16.47;74.29
80934;BME280;70392;51.144;17.050;2023-09-12T05:27:06;100087.71;;;16.47;75.15
80934;BME280;70392;51.144;17.050;2023-09-12T05:29:22;100090.41;;;16.51;75.36
80934;BME280;70392;51.144;17.050;2023-09-12T05:31:44;100085.63;;;16.52;75.19
80934;BME280;70392;51.144;17.050;2023-09-12T05:34:01;100087.71;;;16.57;75.64
80934;BME280;70392;51.144;17.050;2023-09-12T05:36:17;100087.70;;;16.65;75.88
80934;BME280;70392;51.144;17.050;2023-09-12T05:38:34;100091.86;;;16.70;76.07
80934;BME280;70392;51.144;17.050;2023-09-12T05:40:59;100083.66;;;16.77;77.27
80934;BME280;70392;51.144;17.050;2023-09-12T05:43:16;100088.90;;;16.87;77.30
80934;BME280;70392;51.144;17.050;2023-09-12T05:45:33;100084.66;;;16.96;77.90
80934;BME280;70392;51.144;17.050;2023-09-12T05:47:56;100089.71;;;17.06;78.56
80934;BME280;70392;51.144;17.050;2023-09-12T05:50:12;100092.05;;;17.19;77.74
80934;BME280;70392;51.144;17.050;2023-09-12T05:52:28;100091.55;;;17.20;79.81
80934;BME280;70392;51.144;17.050;2023-09-12T05:54:44;100088.27;;;17.29;79.46
80934;BME280;70392;51.144;17.050;2023-09-12T05:57:03;100092.55;;;17.50;78.42
80934;BME280;70392;51.144;17.050;2023-09-12T05:59:20;100082.43;;;17.67;77.89
80934;BME280;70392;51.144;17.050;2023-09-12T06:01:36;100089.71;;;17.71;77.57
80934;BME280;70392;51.144;17.050;2023-09-12T06:03:52;100092.35;;;17.82;77.31
80934;BME280;70392;51.144;17.050;2023-09-12T06:06:10;100080.30;;;17.95;76.46
80934;BME280;70392;51.144;17.050;2023-09-12T06:08:26;100079.63;;;18.05;77.47
80934;BME280;70392;51.144;17.050;2023-09-12T06:10:55;100089.68;;;18.22;75.50
80934;BME280;70392;51.144;17.050;2023-09-12T06:13:15;100088.24;;;18.37;75.07
80934;BME280;70392;51.144;17.050;2023-09-12T06:15:49;100091.04;;;18.50;74.99
80934;BME280;70392;51.144;17.050;2023-09-12T06:18:05;100087.98;;;18.59;74.49
80934;BME280;70392;51.144;17.050;2023-09-12T06:20:23;100089.77;;;18.64;73.62
80934;BME280;70392;51.144;17.050;2023-09-12T06:22:39;100092.45;;;18.74;74.15
80934;BME280;70392;51.144;17.050;2023-09-12T06:24:58;100098.27;;;18.83;74.16
80934;BME280;70392;51.144;17.050;2023-09-12T06:27:18;100087.05;;;18.90;75.46
80934;BME280;70392;51.144;17.050;2023-09-12T06:29:35;100085.96;;;19.02;74.28
80934;BME280;70392;51.144;17.050;2023-09-12T06:31:52;100086.16;;;19.10;74.52
80934;BME280;70392;51.144;17.050;2023-09-12T06:34:19;100089.30;;;19.24;74.33
80934;BME280;70392;51.144;17.050;2023-09-12T06:36:36;100085.42;;;19.39;73.17
80934;BME280;70392;51.144;17.050;2023-09-12T06:38:59;100086.24;;;19.55;72.93
80934;BME280;70392;51.144;17.050;2023-09-12T06:41:19;100085.77;;;19.66;72.64
80934;BME280;70392;51.144;17.050;2023-09-12T06:43:40;100084.89;;;19.78;72.27
80934;BME280;70392;51.144;17.050;2023-09-12T06:46:18;100076.62;;;19.97;71.11
80934;BME280;70392;51.144;17.050;2023-09-12T06:48:35;100082.35;;;20.06;70.87
80934;BME280;70392;51.144;17.050;2023-09-12T06:50:51;100085.86;;;20.14;70.58
80934;BME280;70392;51.144;17.050;2023-09-12T06:53:08;100090.13;;;20.20;70.31
80934;BME280;70392;51.144;17.050;2023-09-12T06:55:45;100087.82;;;20.37;70.46
80934;BME280;70392;51.144;17.050;2023-09-12T06:58:03;100090.91;;;20.44;69.72
80934;BME280;70392;51.144;17.050;2023-09-12T07:00:20;100085.34;;;20.50;69.62
80934;BME280;70392;51.144;17.050;2023-09-12T07:02:36;100092.53;;;20.54;69.58
80934;BME280;70392;51.144;17.050;2023-09-12T07:04:52;100083.63;;;20.64;69.48
80934;BME280;70392;51.144;17.050;2023-09-12T07:07:10;100090.27;;;20.72;69.64
80934;BME280;70392;51.144;17.050;2023-09-12T07:09:26;100093.65;;;20.79;69.25
80934;BME280;70392;51.144;17.050;2023-09-12T07:11:46;100092.17;;;20.88;68.78
80934;BME280;70392;51.144;17.050;2023-09-12T07:14:04;100093.53;;;20.99;69.16
80934;BME280;70392;51.144;17.050;2023-09-12T07:16:20;100090.45;;;21.07;69.27
80934;BME280;70392;51.144;17.050;2023-09-12T07:18:44;100092.21;;;21.19;68.94
80934;BME280;70392;51.144;17.050;2023-09-12T07:21:02;100085.53;;;21.33;68.74
80934;BME280;70392;51.144;17.050;2023-09-12T07:23:19;100090.59;;;21.43;68.15
80934;BME280;70392;51.144;17.050;2023-09-12T07:25:40;100091.39;;;21.49;68.61
80934;BME280;70392;51.144;17.050;2023-09-12T07:28:15;100094.68;;;21.70;67.78
80934;BME280;70392;51.144;17.050;2023-09-12T07:30:34;100098.09;;;21.81;67.36
80934;BME280;70392;51.144;17.050;2023-09-12T07:32:51;100103.82;;;21.89;67.43
80934;BME280;70392;51.144;17.050;2023-09-12T07:35:10;100101.57;;;21.94;67.46
80934;BME280;70392;51.144;17.050;2023-09-12T07:37:29;100104.85;;;22.07;66.93
80934;BME280;70392;51.144;17.050;2023-09-12T07:39:46;100099.09;;;22.17;66.72
80934;BME280;70392;51.144;17.050;2023-09-12T07:42:03;100096.74;;;22.29;66.33
80934;BME280;70392;51.144;17.050;2023-09-12T07:44:21;100100.57;;;22.38;66.10
80934;BME280;70392;51.144;17.050;2023-09-12T07:46:38;100097.18;;;22.48;65.93
80934;BME280;70392;51.144;17.050;2023-09-12T07:48:55;100093.38;;;22.58;65.63
80934;BME280;70392;51.144;17.050;2023-09-12T07:51:12;100099.88;;;22.73;65.37
80934;BME280;70392;51.144;17.050;2023-09-12T07:53:32;100100.04;;;22.86;65.22
80934;BME280;70392;51.144;17.050;2023-09-12T07:55:51;100093.48;;;23.00;64.77
80934;BME280;70392;51.144;17.050;2023-09-12T07:58:07;100089.41;;;23.11;64.48
80934;BME280;70392;51.144;17.050;2023-09-12T08:00:36;100092.63;;;23.24;64.21
80934;BME280;70392;51.144;17.050;2023-09-12T08:02:53;100091.62;;;23.34;64.01
80934;BME280;70392;51.144;17.050;2023-09-12T08:05:15;100094.05;;;23.45;63.73
80934;BME280;70392;51.144;17.050;2023-09-12T08:07:32;100094.13;;;23.54;63.23
80934;BME280;70392;51.144;17.050;2023-09-12T08:09:57;100097.57;;;23.66;63.17
80934;BME280;70392;51.144;17.050;2023-09-12T08:12:13;100095.52;;;23.86;62.73
80934;BME280;70392;51.144;17.050;2023-09-12T08:14:32;100092.56;;;24.00;62.49
80934;BME280;70392;51.144;17.050;2023-09-12T08:16:50;100090.78;;;24.13;61.95
80934;BME280;70392;51.144;17.050;2023-09-12T08:19:07;100092.30;;;24.22;61.65
80934;BME280;70392;51.144;17.050;2023-09-12T08:21:24;100096.80;;;24.37;61.30
80934;BME280;70392;51.144;17.050;2023-09-12T08:23:40;100093.41;;;24.49;60.42
80934;BME280;70392;51.144;17.050;2023-09-12T08:25:57;100095.16;;;24.57;60.61
80934;BME280;70392;51.144;17.050;2023-09-12T08:28:13;100092.87;;;24.68;60.56
80934;BME280;70392;51.144;17.050;2023-09-12T08:30:29;100097.69;;;24.80;60.35
80934;BME280;70392;51.144;17.050;2023-09-12T08:32:46;100091.86;;;24.80;60.15
80934;BME280;70392;51.144;17.050;2023-09-12T08:35:04;100096.29;;;25.00;60.10
80934;BME280;70392;51.144;17.050;2023-09-12T08:37:20;100094.40;;;25.16;59.34
80934;BME280;70392;51.144;17.050;2023-09-12T08:39:44;100096.22;;;25.29;58.56
80934;BME280;70392;51.144;17.050;2023-09-12T08:42:00;100103.57;;;25.45;58.28
80934;BME280;70392;51.144;17.050;2023-09-12T08:44:17;100098.50;;;25.53;57.67
80934;BME280;70392;51.144;17.050;2023-09-12T08:46:34;100093.54;;;25.58;57.27
80934;BME280;70392;51.144;17.050;2023-09-12T08:49:00;100098.23;;;25.76;57.39
80934;BME280;70392;51.144;17.050;2023-09-12T08:51:18;100097.32;;;25.87;57.19
80934;BME280;70392;51.144;17.050;2023-09-12T08:53:36;100099.80;;;25.86;56.36
80934;BME280;70392;51.144;17.050;2023-09-12T08:55:53;100107.48;;;26.06;56.15
80934;BME280;70392;51.144;17.050;2023-09-12T08:58:11;100106.75;;;26.16;56.51
80934;BME280;70392;51.144;17.050;2023-09-12T09:00:29;100113.84;;;26.33;55.89
80934;BME280;70392;51.144;17.050;2023-09-12T09:02:59;100110.71;;;26.55;54.86
80934;BME280;70392;51.144;17.050;2023-09-12T09:05:19;100107.76;;;26.65;54.73
80934;BME280;70392;51.144;17.050;2023-09-12T09:07:39;100116.59;;;26.82;55.07
80934;BME280;70392;51.144;17.050;2023-09-12T09:09:56;100114.85;;;26.94;53.39
80934;BME280;70392;51.144;17.050;2023-09-12T09:12:13;100112.41;;;27.00;54.35
80934;BME280;70392;51.144;17.050;2023-09-12T09:14:38;100113.99;;;27.09;54.39
80934;BME280;70392;51.144;17.050;2023-09-12T09:16:55;100117.01;;;27.21;54.46
80934;BME280;70392;51.144;17.050;2023-09-12T09:19:16;100113.84;;;27.35;54.23
80934;BME280;70392;51.144;17.050;2023-09-12T09:21:36;100112.26;;;27.49;54.31
80934;BME280;70392;51.144;17.050;2023-09-12T09:24:17;100112.88;;;27.76;53.46
80934;BME280;70392;51.144;17.050;2023-09-12T09:29:08;100115.35;;;28.02;51.90
80934;BME280;70392;51.144;17.050;2023-09-12T09:31:25;100110.62;;;28.04;49.90
80934;BME280;70392;51.144;17.050;2023-09-12T09:33:51;100116.71;;;28.16;50.11
80934;BME280;70392;51.144;17.050;2023-09-12T09:36:08;100107.59;;;28.36;50.60
80934;BME280;70392;51.144;17.050;2023-09-12T09:38:29;100109.28;;;28.53;50.05
80934;BME280;70392;51.144;17.050;2023-09-12T09:40:47;100102.99;;;28.67;50.12
80934;BME280;70392;51.144;17.050;2023-09-12T09:43:25;100106.23;;;28.84;48.72
80934;BME280;70392;51.144;17.050;2023-09-12T09:45:46;100104.17;;;28.85;47.23
80934;BME280;70392;51.144;17.050;2023-09-12T09:48:09;100099.73;;;28.91;49.04
80934;BME280;70392;51.144;17.050;2023-09-12T09:50:28;100105.23;;;29.00;48.49
80934;BME280;70392;51.144;17.050;2023-09-12T09:52:44;100102.22;;;29.17;49.46
80934;BME280;70392;51.144;17.050;2023-09-12T09:55:01;100101.79;;;29.40;49.19
80934;BME280;70392;51.144;17.050;2023-09-12T09:57:27;100096.15;;;29.62;47.03
80934;BME280;70392;51.144;17.050;2023-09-12T09:59:49;100092.09;;;29.66;47.01
80934;BME280;70392;51.144;17.050;2023-09-12T10:02:17;100093.66;;;29.84;45.75
80934;BME280;70392;51.144;17.050;2023-09-12T10:04:39;100098.74;;;29.88;46.08
80934;BME280;70392;51.144;17.050;2023-09-12T10:06:58;100090.08;;;30.12;46.25
80934;BME280;70392;51.144;17.050;2023-09-12T10:09:16;100090.48;;;30.18;45.43
80934;BME280;70392;51.144;17.050;2023-09-12T10:11:43;100089.23;;;30.33;45.11
80934;BME280;70392;51.144;17.050;2023-09-12T10:14:06;100093.28;;;30.56;44.50
80934;BME280;70392;51.144;17.050;2023-09-12T10:21:53;100091.10;;;31.20;41.80
80934;BME280;70392;51.144;17.050;2023-09-12T10:24:11;100095.27;;;31.33;42.53
80934;BME280;70392;51.144;17.050;2023-09-12T10:26:31;100094.45;;;31.49;42.51
80934;BME280;70392;51.144;17.050;2023-09-12T10:28:48;100096.94;;;31.72;43.10
80934;BME280;70392;51.144;17.050;2023-09-12T10:31:11;100091.25;;;31.97;40.83
80934;BME280;70392;51.144;17.050;2023-09-12T10:33:31;100088.71;;;32.23;39.23
80934;BME280;70392;51.144;17.050;2023-09-12T10:35:49;100093.81;;;32.57;39.67
80934;BME280;70392;51.144;17.050;2023-09-12T10:38:16;100088.24;;;32.74;38.59
80934;BME280;70392;51.144;17.050;2023-09-12T10:40:37;100091.98;;;32.89;33.07
80934;BME280;70392;51.144;17.050;2023-09-12T10:42:55;100092.66;;;33.19;34.62
80934;BME280;70392;51.144;17.050;2023-09-12T10:45:13;100090.52;;;33.32;35.18
80934;BME280;70392;51.144;17.050;2023-09-12T10:47:32;100086.55;;;33.43;34.19
80934;BME280;70392;51.144;17.050;2023-09-12T10:49:49;100087.98;;;33.54;35.28
80934;BME280;70392;51.144;17.050;2023-09-12T10:52:06;100088.41;;;33.94;32.91
80934;BME280;70392;51.144;17.050;2023-09-12T10:54:36;100085.95;;;34.17;33.72
80934;BME280;70392;51.144;17.050;2023-09-12T10:59:27;100072.59;;;34.86;32.06
80934;BME280;70392;51.144;17.050;2023-09-12T11:01:49;100076.05;;;34.93;31.88
80934;BME280;70392;51.144;17.050;2023-09-12T11:04:34;100069.42;;;35.36;31.55
80934;BME280;70392;51.144;17.050;2023-09-12T11:06:55;100069.72;;;35.69;29.88
80934;BME280;70392;51.144;17.050;2023-09-12T11:09:22;100074.50;;;35.89;29.18
80934;BME280;70392;51.144;17.050;2023-09-12T11:11:43;100068.13;;;36.23;28.21
80934;BME280;70392;51.144;17.050;2023-09-12T11:14:03;100073.72;;;36.37;28.63
80934;BME280;70392;51.144;17.050;2023-09-12T11:16:21;100062.88;;;36.66;27.65
80934;BME280;70392;51.144;17.050;2023-09-12T11:21:03;100066.78;;;36.81;25.86
80934;BME280;70392;51.144;17.050;2023-09-12T11:23:20;100068.30;;;36.83;25.65
80934;BME280;70392;51.144;17.050;2023-09-12T11:25:38;100067.42;;;37.00;25.52
80934;BME280;70392;51.144;17.050;2023-09-12T11:28:04;100065.67;;;37.02;24.35
80934;BME280;70392;51.144;17.050;2023-09-12T11:30:22;100066.20;;;37.17;24.90
80934;BME280;70392;51.144;17.050;2023-09-12T11:32:39;100071.52;;;37.28;25.44
80934;BME280;70392;51.144;17.050;2023-09-12T11:34:55;100072.05;;;37.37;24.61
80934;BME280;70392;51.144;17.050;2023-09-12T11:37:25;100063.81;;;37.48;25.38
80934;BME280;70392;51.144;17.050;2023-09-12T11:39:47;100072.74;;;38.00;25.32
80934;BME280;70392;51.144;17.050;2023-09-12T11:42:10;100066.94;;;38.25;25.20
80934;BME280;70392;51.144;17.050;2023-09-12T11:44:31;100074.37;;;38.00;26.18
80934;BME280;70392;51.144;17.050;2023-09-12T11:46:49;100069.58;;;38.40;25.44
80934;BME280;70392;51.144;17.050;2023-09-12T11:49:10;100071.13;;;38.61;24.64
80934;BME280;70392;51.144;17.050;2023-09-12T11:51:30;100064.16;;;38.61;22.58
80934;BME280;70392;51.144;17.050;2023-09-12T11:53:55;100063.20;;;38.69;23.69
80934;BME280;70392;51.144;17.050;2023-09-12T11:56:14;100062.46;;;38.47;23.63
80934;BME280;70392;51.144;17.050;2023-09-12T11:58:30;100056.84;;;38.76;22.86
80934;BME280;70392;51.144;17.050;2023-09-12T12:00:54;100055.51;;;38.87;23.86
80934;BME280;70392;51.144;17.050;2023-09-12T12:03:11;100049.36;;;39.14;23.64
80934;BME280;70392;51.144;17.050;2023-09-12T12:05:27;100052.70;;;39.58;23.78
80934;BME280;70392;51.144;17.050;2023-09-12T12:07:52;100049.16;;;40.00;22.96
80934;BME280;70392;51.144;17.050;2023-09-12T12:10:08;100049.45;;;40.35;23.26
80934;BME280;70392;51.144;17.050;2023-09-12T12:12:27;100048.33;;;40.37;23.61
80934;BME280;70392;51.144;17.050;2023-09-12T12:14:46;100048.05;;;40.46;21.88
80934;BME280;70392;51.144;17.050;2023-09-12T12:17:09;100048.39;;;40.12;21.63